Terminal Aerodrome Forecast
Issued by NWS

Current Version | Previous Version | Graphics & Text | Print | Product List | Glossary On
Versions: 1 2 3 4 5 6 7 8 9 10 11 12 13 14 15 16
000
FTUS41 KPBZ 201730
TAFHLG
TAF
KHLG 201730Z 2018/2118 27011G19KT P6SM SCT090
     FM210000 22006KT P6SM SKC
     FM211000 21004KT P6SM BKN090
     FM211600 26010G16KT P6SM BKN100
     FM211700 27011G18KT P6SM BKN050=

USA.gov is the U.S. government's official web portal to all federal, state and local government web resources and services.